sensor_id;sensor_type;location;lat;lon;timestamp;pressure;altitude;pressure_sealevel;temperature
19061;BMP280;9663;48.996;8.334;2022-11-15T00:00:52;100032.78;;;14.11
19061;BMP280;9663;48.996;8.334;2022-11-15T00:03:22;100024.22;;;14.13
19061;BMP280;9663;48.996;8.334;2022-11-15T00:05:48;100015.69;;;14.14
19061;BMP280;9663;48.996;8.334;2022-11-15T00:08:14;100018.22;;;14.16
19061;BMP280;9663;48.996;8.334;2022-11-15T00:10:40;100017.31;;;14.18
19061;BMP280;9663;48.996;8.334;2022-11-15T00:13:12;100017.31;;;14.18
19061;BMP280;9663;48.996;8.334;2022-11-15T00:15:40;100028.31;;;14.20
19061;BMP280;9663;48.996;8.334;2022-11-15T00:18:14;100024.09;;;14.18
19061;BMP280;9663;48.996;8.334;2022-11-15T00:20:41;100024.09;;;14.18
19061;BMP280;9663;48.996;8.334;2022-11-15T00:23:07;100020.66;;;14.20
19061;BMP280;9663;48.996;8.334;2022-11-15T00:25:33;100016.41;;;14.21
19061;BMP280;9663;48.996;8.334;2022-11-15T00:28:00;100016.38;;;14.22
19061;BMP280;9663;48.996;8.334;2022-11-15T00:30:27;100009.56;;;14.21
19061;BMP280;9663;48.996;8.334;2022-11-15T00:32:52;100004.44;;;14.23
19061;BMP280;9663;48.996;8.334;2022-11-15T00:35:19;100013.81;;;14.22
19061;BMP280;9663;48.996;8.334;2022-11-15T00:37:45;100014.66;;;14.21
19061;BMP280;9663;48.996;8.334;2022-11-15T00:40:14;100008.81;;;14.18
19061;BMP280;9663;48.996;8.334;2022-11-15T00:42:40;99997.84;;;14.14
19061;BMP280;9663;48.996;8.334;2022-11-15T00:45:07;100010.59;;;14.14
19061;BMP280;9663;48.996;8.334;2022-11-15T00:47:33;99996.22;;;14.12
19061;BMP280;9663;48.996;8.334;2022-11-15T00:49:58;100004.69;;;14.12
19061;BMP280;9663;48.996;8.334;2022-11-15T00:52:24;99988.56;;;14.12
19061;BMP280;9663;48.996;8.334;2022-11-15T00:54:50;99986.84;;;14.12
19061;BMP280;9663;48.996;8.334;2022-11-15T00:57:15;99977.41;;;14.16
19061;BMP280;9663;48.996;8.334;2022-11-15T00:59:41;99982.41;;;14.20
19061;BMP280;9663;48.996;8.334;2022-11-15T01:02:06;99982.28;;;14.25
19061;BMP280;9663;48.996;8.334;2022-11-15T01:04:32;99984.75;;;14.28
19061;BMP280;9663;48.996;8.334;2022-11-15T01:06:58;99977.03;;;14.31
19061;BMP280;9663;48.996;8.334;2022-11-15T01:09:23;99976.94;;;14.35
19061;BMP280;9663;48.996;8.334;2022-11-15T01:11:49;99977.75;;;14.37
19061;BMP280;9663;48.996;8.334;2022-11-15T01:14:15;99973.44;;;14.39
19061;BMP280;9663;48.996;8.334;2022-11-15T01:16:42;99973.44;;;14.39
19061;BMP280;9663;48.996;8.334;2022-11-15T01:19:07;99974.31;;;14.40
19061;BMP280;9663;48.996;8.334;2022-11-15T01:21:33;99976.88;;;14.38
19061;BMP280;9663;48.996;8.334;2022-11-15T01:23:59;99975.19;;;14.37
19061;BMP280;9663;48.996;8.334;2022-11-15T01:26:25;99976.84;;;14.40
19061;BMP280;9663;48.996;8.334;2022-11-15T01:28:51;99977.69;;;14.40
19061;BMP280;9663;48.996;8.334;2022-11-15T01:31:20;99977.66;;;14.42
19061;BMP280;9663;48.996;8.334;2022-11-15T01:33:47;99975.88;;;14.44
19061;BMP280;9663;48.996;8.334;2022-11-15T01:36:20;99974.97;;;14.46
19061;BMP280;9663;48.996;8.334;2022-11-15T01:38:57;99976.63;;;14.49
19061;BMP280;9663;48.996;8.334;2022-11-15T01:41:30;99975.69;;;14.51
19061;BMP280;9663;48.996;8.334;2022-11-15T01:47:19;99972.09;;;14.59
19061;BMP280;9663;48.996;8.334;2022-11-15T01:50:11;99954.16;;;14.61
19061;BMP280;9663;48.996;8.334;2022-11-15T01:52:39;99956.56;;;14.67
19061;BMP280;9663;48.996;8.334;2022-11-15T01:55:11;99951.44;;;14.68
19061;BMP280;9663;48.996;8.334;2022-11-15T01:57:41;99941.19;;;14.70
19061;BMP280;9663;48.996;8.334;2022-11-15T02:00:08;99945.47;;;14.69
19061;BMP280;9663;48.996;8.334;2022-11-15T02:02:37;99943.81;;;14.67
19061;BMP280;9663;48.996;8.334;2022-11-15T02:05:03;99931.06;;;14.67
19061;BMP280;9663;48.996;8.334;2022-11-15T02:07:31;99931.03;;;14.68
19061;BMP280;9663;48.996;8.334;2022-11-15T02:10:10;99938.72;;;14.67
19061;BMP280;9663;48.996;8.334;2022-11-15T02:12:36;99938.69;;;14.68
19061;BMP280;9663;48.996;8.334;2022-11-15T02:15:04;99922.50;;;14.69
19061;BMP280;9663;48.996;8.334;2022-11-15T02:18:16;99911.44;;;14.69
19061;BMP280;9663;48.996;8.334;2022-11-15T02:21:09;99908.97;;;14.66
19061;BMP280;9663;48.996;8.334;2022-11-15T02:30:00;99899.78;;;14.59
19061;BMP280;9663;48.996;8.334;2022-11-15T02:32:36;99892.91;;;14.61
19061;BMP280;9663;48.996;8.334;2022-11-15T02:35:27;99890.31;;;14.62
19061;BMP280;9663;48.996;8.334;2022-11-15T02:41:09;99895.56;;;14.58
19061;BMP280;9663;48.996;8.334;2022-11-15T02:43:56;99894.75;;;14.56
19061;BMP280;9663;48.996;8.334;2022-11-15T02:46:57;99894.13;;;14.48
19061;BMP280;9663;48.996;8.334;2022-11-15T02:49:49;99892.47;;;14.46
19061;BMP280;9663;48.996;8.334;2022-11-15T02:52:17;99887.38;;;14.46
19061;BMP280;9663;48.996;8.334;2022-11-15T02:54:58;99885.72;;;14.45
19061;BMP280;9663;48.996;8.334;2022-11-15T03:00:12;99866.19;;;14.44
19061;BMP280;9663;48.996;8.334;2022-11-15T03:05:56;99873.16;;;14.37
19061;BMP280;9663;48.996;8.334;2022-11-15T03:08:42;99887.69;;;14.34
19061;BMP280;9663;48.996;8.334;2022-11-15T03:11:15;99879.25;;;14.32
19061;BMP280;9663;48.996;8.334;2022-11-15T03:14:13;99873.47;;;14.25
19061;BMP280;9663;48.996;8.334;2022-11-15T03:17:28;99875.22;;;14.23
19061;BMP280;9663;48.996;8.334;2022-11-15T03:20:01;99871.69;;;14.27
19061;BMP280;9663;48.996;8.334;2022-11-15T03:22:35;99874.19;;;14.30
19061;BMP280;9663;48.996;8.334;2022-11-15T03:25:08;99867.31;;;14.32
19061;BMP280;9663;48.996;8.334;2022-11-15T03:27:40;99871.47;;;14.36
19061;BMP280;9663;48.996;8.334;2022-11-15T03:30:08;99871.38;;;14.39
19061;BMP280;9663;48.996;8.334;2022-11-15T03:32:51;99862.88;;;14.40
19061;BMP280;9663;48.996;8.334;2022-11-15T03:35:22;99857.69;;;14.43
19061;BMP280;9663;48.996;8.334;2022-11-15T03:38:04;99868.75;;;14.42
19061;BMP280;9663;48.996;8.334;2022-11-15T03:40:57;99860.34;;;14.39
19061;BMP280;9663;48.996;8.334;2022-11-15T03:43:41;99857.84;;;14.37
19061;BMP280;9663;48.996;8.334;2022-11-15T03:46:16;99861.34;;;14.33
19061;BMP280;9663;48.996;8.334;2022-11-15T03:48:51;99863.97;;;14.30
19061;BMP280;9663;48.996;8.334;2022-11-15T03:51:18;99859.72;;;14.29
19061;BMP280;9663;48.996;8.334;2022-11-15T03:53:45;99865.66;;;14.30
19061;BMP280;9663;48.996;8.334;2022-11-15T03:56:11;99868.19;;;14.31
19061;BMP280;9663;48.996;8.334;2022-11-15T03:58:36;99867.34;;;14.31
19061;BMP280;9663;48.996;8.334;2022-11-15T04:01:02;99864.09;;;14.26
19061;BMP280;9663;48.996;8.334;2022-11-15T04:03:28;99863.25;;;14.25
19061;BMP280;9663;48.996;8.334;2022-11-15T04:05:53;99869.16;;;14.27
19061;BMP280;9663;48.996;8.334;2022-11-15T04:08:19;99861.44;;;14.30
19061;BMP280;9663;48.996;8.334;2022-11-15T04:10:45;99863.03;;;14.33
19061;BMP280;9663;48.996;8.334;2022-11-15T04:13:13;99865.50;;;14.37
19061;BMP280;9663;48.996;8.334;2022-11-15T04:15:39;99863.75;;;14.38
19061;BMP280;9663;48.996;8.334;2022-11-15T04:18:04;99865.38;;;14.42
19061;BMP280;9663;48.996;8.334;2022-11-15T04:20:31;99871.22;;;14.47
19061;BMP280;9663;48.996;8.334;2022-11-15T04:23:22;99860.03;;;14.51
19061;BMP280;9663;48.996;8.334;2022-11-15T04:26:20;99870.09;;;14.56
19061;BMP280;9663;48.996;8.334;2022-11-15T04:28:47;99852.19;;;14.58
19061;BMP280;9663;48.996;8.334;2022-11-15T04:31:31;99859.81;;;14.59
19061;BMP280;9663;48.996;8.334;2022-11-15T04:33:57;99863.09;;;14.63
19061;BMP280;9663;48.996;8.334;2022-11-15T04:36:23;99852.81;;;14.66
19061;BMP280;9663;48.996;8.334;2022-11-15T04:39:08;99855.38;;;14.66
19061;BMP280;9663;48.996;8.334;2022-11-15T04:41:34;99854.44;;;14.68
19061;BMP280;9663;48.996;8.334;2022-11-15T04:44:00;99857.81;;;14.69
19061;BMP280;9663;48.996;8.334;2022-11-15T04:46:26;99844.19;;;14.70
19061;BMP280;9663;48.996;8.334;2022-11-15T04:48:53;99844.97;;;14.72
19061;BMP280;9663;48.996;8.334;2022-11-15T04:51:19;99840.66;;;14.74
19061;BMP280;9663;48.996;8.334;2022-11-15T04:53:45;99836.31;;;14.77
19061;BMP280;9663;48.996;8.334;2022-11-15T04:56:11;99826.88;;;14.81
19061;BMP280;9663;48.996;8.334;2022-11-15T04:58:37;99831.88;;;14.84
19061;BMP280;9663;48.996;8.334;2022-11-15T05:01:10;99833.47;;;14.88
19061;BMP280;9663;48.996;8.334;2022-11-15T05:03:37;99835.91;;;14.92
19061;BMP280;9663;48.996;8.334;2022-11-15T05:06:22;99840.16;;;14.92
19061;BMP280;9663;48.996;8.334;2022-11-15T05:08:47;99835.06;;;14.92
19061;BMP280;9663;48.996;8.334;2022-11-15T05:11:13;99821.47;;;14.91
19061;BMP280;9663;48.996;8.334;2022-11-15T05:13:39;99824.03;;;14.91
19061;BMP280;9663;48.996;8.334;2022-11-15T05:16:04;99830.69;;;14.95
19061;BMP280;9663;48.996;8.334;2022-11-15T05:18:30;99827.28;;;14.96
19061;BMP280;9663;48.996;8.334;2022-11-15T05:20:56;99832.34;;;14.97
19061;BMP280;9663;48.996;8.334;2022-11-15T05:23:27;99818.84;;;14.94
19061;BMP280;9663;48.996;8.334;2022-11-15T05:25:53;99818.09;;;14.91
19061;BMP280;9663;48.996;8.334;2022-11-15T05:28:19;99826.66;;;14.88
19061;BMP280;9663;48.996;8.334;2022-11-15T05:30:44;99826.78;;;14.84
19061;BMP280;9663;48.996;8.334;2022-11-15T05:33:10;99823.34;;;14.85
19061;BMP280;9663;48.996;8.334;2022-11-15T05:35:42;99823.34;;;14.85
19061;BMP280;9663;48.996;8.334;2022-11-15T05:38:11;99827.47;;;14.89
19061;BMP280;9663;48.996;8.334;2022-11-15T05:40:37;99812.16;;;14.89
19061;BMP280;9663;48.996;8.334;2022-11-15T05:43:04;99817.09;;;14.94
19061;BMP280;9663;48.996;8.334;2022-11-15T05:45:33;99823.84;;;14.97
19061;BMP280;9663;48.996;8.334;2022-11-15T05:48:00;99825.56;;;14.96
19061;BMP280;9663;48.996;8.334;2022-11-15T05:50:29;99817.94;;;14.95
19061;BMP280;9663;48.996;8.334;2022-11-15T05:52:56;99816.34;;;14.91
19061;BMP280;9663;48.996;8.334;2022-11-15T05:55:22;99813.13;;;14.85
19061;BMP280;9663;48.996;8.334;2022-11-15T05:57:48;99823.63;;;14.76
19061;BMP280;9663;48.996;8.334;2022-11-15T06:00:14;99826.44;;;14.65
19061;BMP280;9663;48.996;8.334;2022-11-15T06:02:39;99829.19;;;14.59
19061;BMP280;9663;48.996;8.334;2022-11-15T06:05:05;99821.72;;;14.52
19061;BMP280;9663;48.996;8.334;2022-11-15T06:07:31;99820.13;;;14.48
19061;BMP280;9663;48.996;8.334;2022-11-15T06:09:57;99822.72;;;14.47
19061;BMP280;9663;48.996;8.334;2022-11-15T06:12:22;99816.75;;;14.46
19061;BMP280;9663;48.996;8.334;2022-11-15T06:14:48;99820.22;;;14.45
19061;BMP280;9663;48.996;8.334;2022-11-15T06:17:13;99819.31;;;14.46
19061;BMP280;9663;48.996;8.334;2022-11-15T06:19:39;99806.56;;;14.46
19061;BMP280;9663;48.996;8.334;2022-11-15T06:22:05;99807.38;;;14.48
19061;BMP280;9663;48.996;8.334;2022-11-15T06:24:30;99804.72;;;14.51
19061;BMP280;9663;48.996;8.334;2022-11-15T06:26:56;99803.78;;;14.55
19061;BMP280;9663;48.996;8.334;2022-11-15T06:29:22;99807.06;;;14.58
19061;BMP280;9663;48.996;8.334;2022-11-15T06:31:48;99808.69;;;14.61
19061;BMP280;9663;48.996;8.334;2022-11-15T06:34:14;99799.34;;;14.61
19061;BMP280;9663;48.996;8.334;2022-11-15T06:36:39;99804.34;;;14.66
19061;BMP280;9663;48.996;8.334;2022-11-15T06:39:05;99804.22;;;14.69
19061;BMP280;9663;48.996;8.334;2022-11-15T06:41:35;99801.63;;;14.70
19061;BMP280;9663;48.996;8.334;2022-11-15T06:44:02;99798.97;;;14.75
19061;BMP280;9663;48.996;8.334;2022-11-15T06:46:27;99798.88;;;14.78
19061;BMP280;9663;48.996;8.334;2022-11-15T06:48:53;99800.50;;;14.80
19061;BMP280;9663;48.996;8.334;2022-11-15T06:51:19;99791.94;;;14.83
19061;BMP280;9663;48.996;8.334;2022-11-15T06:53:45;99794.44;;;14.84
19061;BMP280;9663;48.996;8.334;2022-11-15T06:56:11;99800.47;;;14.82
19061;BMP280;9663;48.996;8.334;2022-11-15T06:58:36;99799.63;;;14.81
19061;BMP280;9663;48.996;8.334;2022-11-15T07:01:08;99795.34;;;14.82
19061;BMP280;9663;48.996;8.334;2022-11-15T07:03:37;99812.31;;;14.84
19061;BMP280;9663;48.996;8.334;2022-11-15T07:06:04;99808.00;;;14.86
19061;BMP280;9663;48.996;8.334;2022-11-15T07:08:30;99810.47;;;14.89
19061;BMP280;9663;48.996;8.334;2022-11-15T07:11:04;99806.94;;;14.93
19061;BMP280;9663;48.996;8.334;2022-11-15T07:13:32;99808.56;;;14.95
19061;BMP280;9663;48.996;8.334;2022-11-15T07:16:09;99814.38;;;15.00
19061;BMP280;9663;48.996;8.334;2022-11-15T07:18:38;99813.50;;;15.01
19061;BMP280;9663;48.996;8.334;2022-11-15T07:21:07;99824.41;;;15.06
19061;BMP280;9663;48.996;8.334;2022-11-15T07:23:37;99827.72;;;15.10
19061;BMP280;9663;48.996;8.334;2022-11-15T07:26:04;99824.19;;;15.14
19061;BMP280;9663;48.996;8.334;2022-11-15T07:28:29;99825.03;;;15.14
19061;BMP280;9663;48.996;8.334;2022-11-15T07:30:55;99824.97;;;15.17
19061;BMP280;9663;48.996;8.334;2022-11-15T07:33:21;99818.09;;;15.19
19061;BMP280;9663;48.996;8.334;2022-11-15T07:35:47;99828.28;;;15.21
19061;BMP280;9663;48.996;8.334;2022-11-15T07:38:17;99825.63;;;15.24
19061;BMP280;9663;48.996;8.334;2022-11-15T07:40:46;99830.66;;;15.27
19061;BMP280;9663;48.996;8.334;2022-11-15T07:43:12;99820.28;;;15.31
19061;BMP280;9663;48.996;8.334;2022-11-15T07:45:43;99819.31;;;15.35
19061;BMP280;9663;48.996;8.334;2022-11-15T07:48:09;99826.91;;;15.38
19061;BMP280;9663;48.996;8.334;2022-11-15T07:50:35;99822.41;;;15.44
19061;BMP280;9663;48.996;8.334;2022-11-15T07:53:01;99824.91;;;15.47
19061;BMP280;9663;48.996;8.334;2022-11-15T07:55:27;99819.75;;;15.49
19061;BMP280;9663;48.996;8.334;2022-11-15T07:58:07;99824.72;;;15.53
19061;BMP280;9663;48.996;8.334;2022-11-15T08:00:34;99820.31;;;15.58
19061;BMP280;9663;48.996;8.334;2022-11-15T08:03:15;99809.94;;;15.63
19061;BMP280;9663;48.996;8.334;2022-11-15T08:05:42;99819.09;;;15.70
19061;BMP280;9663;48.996;8.334;2022-11-15T08:08:10;99805.22;;;15.77
19061;BMP280;9663;48.996;8.334;2022-11-15T08:10:37;99803.34;;;15.81
19061;BMP280;9663;48.996;8.334;2022-11-15T08:13:10;99806.50;;;15.89
19061;BMP280;9663;48.996;8.334;2022-11-15T08:15:37;99813.97;;;15.95
19061;BMP280;9663;48.996;8.334;2022-11-15T08:18:15;99800.97;;;16.01
19061;BMP280;9663;48.996;8.334;2022-11-15T08:20:42;99808.38;;;16.10
19061;BMP280;9663;48.996;8.334;2022-11-15T08:23:11;99814.13;;;16.17
19061;BMP280;9663;48.996;8.334;2022-11-15T08:25:38;99807.03;;;16.24
19061;BMP280;9663;48.996;8.334;2022-11-15T08:28:07;99806.69;;;16.35
19061;BMP280;9663;48.996;8.334;2022-11-15T08:30:39;99802.06;;;16.44
19061;BMP280;9663;48.996;8.334;2022-11-15T08:33:12;99805.97;;;16.54
19061;BMP280;9663;48.996;8.334;2022-11-15T08:35:40;99792.00;;;16.64
19061;BMP280;9663;48.996;8.334;2022-11-15T08:38:06;99791.66;;;16.73
19061;BMP280;9663;48.996;8.334;2022-11-15T08:40:31;99787.81;;;16.84
19061;BMP280;9663;48.996;8.334;2022-11-15T08:42:57;99783.25;;;16.92
19061;BMP280;9663;48.996;8.334;2022-11-15T08:45:24;99795.81;;;16.98
19061;BMP280;9663;48.996;8.334;2022-11-15T08:47:49;99790.47;;;17.04
19061;BMP280;9663;48.996;8.334;2022-11-15T08:50:15;99790.25;;;17.10
19061;BMP280;9663;48.996;8.334;2022-11-15T08:52:41;99788.41;;;17.13
19061;BMP280;9663;48.996;8.334;2022-11-15T08:55:07;99789.03;;;17.20
19061;BMP280;9663;48.996;8.334;2022-11-15T08:57:33;99785.47;;;17.24
19061;BMP280;9663;48.996;8.334;2022-11-15T08:59:59;99784.38;;;17.29
19061;BMP280;9663;48.996;8.334;2022-11-15T09:02:24;99783.28;;;17.36
19061;BMP280;9663;48.996;8.334;2022-11-15T09:04:50;99776.25;;;17.41
19061;BMP280;9663;48.996;8.334;2022-11-15T09:07:16;99781.97;;;17.48
19061;BMP280;9663;48.996;8.334;2022-11-15T09:09:42;99781.72;;;17.53
19061;BMP280;9663;48.996;8.334;2022-11-15T09:12:08;99780.72;;;17.57
19061;BMP280;9663;48.996;8.334;2022-11-15T09:14:34;99772.00;;;17.61
19061;BMP280;9663;48.996;8.334;2022-11-15T09:17:00;99770.84;;;17.68
19061;BMP280;9663;48.996;8.334;2022-11-15T09:19:25;99767.22;;;17.74
19061;BMP280;9663;48.996;8.334;2022-11-15T09:21:51;99772.91;;;17.80
19061;BMP280;9663;48.996;8.334;2022-11-15T09:24:17;99771.06;;;17.84
19061;BMP280;9663;48.996;8.334;2022-11-15T09:26:43;99768.19;;;17.91
19061;BMP280;9663;48.996;8.334;2022-11-15T09:29:09;99759.38;;;17.96
19061;BMP280;9663;48.996;8.334;2022-11-15T09:31:35;99762.53;;;18.03
19061;BMP280;9663;48.996;8.334;2022-11-15T09:34:00;99761.47;;;18.08
19061;BMP280;9663;48.996;8.334;2022-11-15T09:36:26;99765.47;;;18.15
19061;BMP280;9663;48.996;8.334;2022-11-15T09:38:52;99762.56;;;18.23
19061;BMP280;9663;48.996;8.334;2022-11-15T09:44:42;99750.59;;;18.23
19061;BMP280;9663;48.996;8.334;2022-11-15T09:47:48;99754.81;;;18.24
19061;BMP280;9663;48.996;8.334;2022-11-15T09:53:11;99752.94;;;18.28
19061;BMP280;9663;48.996;8.334;2022-11-15T09:56:02;99753.16;;;18.23
19061;BMP280;9663;48.996;8.334;2022-11-15T10:01:49;99762.09;;;18.15
19061;BMP280;9663;48.996;8.334;2022-11-15T10:04:22;99751.16;;;18.10
19061;BMP280;9663;48.996;8.334;2022-11-15T10:07:06;99754.66;;;18.07
19061;BMP280;9663;48.996;8.334;2022-11-15T10:10:26;99756.69;;;17.99
19061;BMP280;9663;48.996;8.334;2022-11-15T10:12:53;99762.59;;;18.01
19061;BMP280;9663;48.996;8.334;2022-11-15T10:15:20;99763.47;;;18.02
19061;BMP280;9663;48.996;8.334;2022-11-15T10:20:59;99761.78;;;18.01
19061;BMP280;9663;48.996;8.334;2022-11-15T10:23:27;99759.84;;;18.06
19061;BMP280;9663;48.996;8.334;2022-11-15T10:25:58;99756.28;;;18.10
19061;BMP280;9663;48.996;8.334;2022-11-15T10:28:30;99747.69;;;18.11
19061;BMP280;9663;48.996;8.334;2022-11-15T10:30:59;99744.25;;;18.12
19061;BMP280;9663;48.996;8.334;2022-11-15T10:36:24;99741.75;;;18.09
19061;BMP280;9663;48.996;8.334;2022-11-15T10:41:23;99731.91;;;18.20
19061;BMP280;9663;48.996;8.334;2022-11-15T10:46:35;99726.25;;;18.32
19061;BMP280;9663;48.996;8.334;2022-11-15T10:49:20;99719.94;;;18.39
19061;BMP280;9663;48.996;8.334;2022-11-15T10:51:56;99716.13;;;18.47
19061;BMP280;9663;48.996;8.334;2022-11-15T10:54:34;99703.81;;;18.55
19061;BMP280;9663;48.996;8.334;2022-11-15T10:57:13;99701.53;;;18.67
19061;BMP280;9663;48.996;8.334;2022-11-15T10:59:45;99695.75;;;18.81
19061;BMP280;9663;48.996;8.334;2022-11-15T11:02:59;99686.72;;;18.90
19061;BMP280;9663;48.996;8.334;2022-11-15T11:05:32;99680.66;;;19.10
19061;BMP280;9663;48.996;8.334;2022-11-15T11:08:22;99674.13;;;19.21
19061;BMP280;9663;48.996;8.334;2022-11-15T11:10:58;99671.13;;;19.30
19061;BMP280;9663;48.996;8.334;2022-11-15T11:13:32;99668.16;;;19.37
19061;BMP280;9663;48.996;8.334;2022-11-15T11:18:55;99646.84;;;19.52
19061;BMP280;9663;48.996;8.334;2022-11-15T11:30:38;99626.72;;;19.94
19061;BMP280;9663;48.996;8.334;2022-11-15T11:33:24;99618.22;;;20.09
19061;BMP280;9663;48.996;8.334;2022-11-15T11:36:10;99623.28;;;20.25
19061;BMP280;9663;48.996;8.334;2022-11-15T11:38:58;99610.41;;;20.41
19061;BMP280;9663;48.996;8.334;2022-11-15T11:49:56;99584.22;;;20.80
19061;BMP280;9663;48.996;8.334;2022-11-15T11:52:43;99593.66;;;20.80
19061;BMP280;9663;48.996;8.334;2022-11-15T11:58:06;99598.16;;;20.76
19061;BMP280;9663;48.996;8.334;2022-11-15T12:00:51;99601.84;;;20.72
19061;BMP280;9663;48.996;8.334;2022-11-15T12:06:09;99582.38;;;20.67
19061;BMP280;9663;48.996;8.334;2022-11-15T12:08:53;99583.31;;;20.66
19061;BMP280;9663;48.996;8.334;2022-11-15T12:17:28;99575.88;;;20.60
19061;BMP280;9663;48.996;8.334;2022-11-15T12:19:59;99563.41;;;20.83
19061;BMP280;9663;48.996;8.334;2022-11-15T12:22:53;99561.59;;;20.70
19061;BMP280;9663;48.996;8.334;2022-11-15T12:25:29;99552.44;;;20.80
19061;BMP280;9663;48.996;8.334;2022-11-15T12:30:46;99539.44;;;20.97
19061;BMP280;9663;48.996;8.334;2022-11-15T12:33:41;99538.19;;;21.03
19061;BMP280;9663;48.996;8.334;2022-11-15T12:38:59;99536.41;;;21.33
19061;BMP280;9663;48.996;8.334;2022-11-15T12:41:32;99534.50;;;21.50
19061;BMP280;9663;48.996;8.334;2022-11-15T12:43:58;99527.63;;;21.65
19061;BMP280;9663;48.996;8.334;2022-11-15T12:49:07;99509.09;;;21.86
19061;BMP280;9663;48.996;8.334;2022-11-15T13:00:01;99492.38;;;21.91
19061;BMP280;9663;48.996;8.334;2022-11-15T13:02:42;99486.31;;;21.92
19061;BMP280;9663;48.996;8.334;2022-11-15T13:17:50;99456.09;;;21.81
19061;BMP280;9663;48.996;8.334;2022-11-15T13:20:23;99456.75;;;21.70
19061;BMP280;9663;48.996;8.334;2022-11-15T13:30:37;99438.75;;;21.27
19061;BMP280;9663;48.996;8.334;2022-11-15T13:33:15;99442.81;;;21.17
19061;BMP280;9663;48.996;8.334;2022-11-15T13:35:47;99440.78;;;21.08
19061;BMP280;9663;48.996;8.334;2022-11-15T13:40:55;99426.97;;;21.23
19061;BMP280;9663;48.996;8.334;2022-11-15T13:46:16;99426.56;;;20.88
19061;BMP280;9663;48.996;8.334;2022-11-15T13:48:43;99421.00;;;20.80
19061;BMP280;9663;48.996;8.334;2022-11-15T13:53:52;99415.03;;;20.65
19061;BMP280;9663;48.996;8.334;2022-11-15T13:56:23;99416.16;;;20.60
19061;BMP280;9663;48.996;8.334;2022-11-15T13:58:49;99411.38;;;20.54
19061;BMP280;9663;48.996;8.334;2022-11-15T14:01:20;99405.66;;;20.49
19061;BMP280;9663;48.996;8.334;2022-11-15T14:04:00;99392.28;;;20.43
19061;BMP280;9663;48.996;8.334;2022-11-15T14:06:30;99373.50;;;20.41
19061;BMP280;9663;48.996;8.334;2022-11-15T14:11:49;99361.50;;;20.55
19061;BMP280;9663;48.996;8.334;2022-11-15T14:14:15;99372.66;;;20.56
19061;BMP280;9663;48.996;8.334;2022-11-15T14:16:44;99368.34;;;20.41
19061;BMP280;9663;48.996;8.334;2022-11-15T14:19:33;99365.50;;;20.31
19061;BMP280;9663;48.996;8.334;2022-11-15T14:22:24;99355.28;;;20.30
19061;BMP280;9663;48.996;8.334;2022-11-15T14:25:14;99355.44;;;20.27
19061;BMP280;9663;48.996;8.334;2022-11-15T14:27:43;99354.47;;;20.29
19061;BMP280;9663;48.996;8.334;2022-11-15T14:30:16;99351.88;;;20.29
19061;BMP280;9663;48.996;8.334;2022-11-15T14:32:49;99345.78;;;20.30
19061;BMP280;9663;48.996;8.334;2022-11-15T14:35:19;99344.16;;;20.29
19061;BMP280;9663;48.996;8.334;2022-11-15T14:37:46;99345.97;;;20.27
19061;BMP280;9663;48.996;8.334;2022-11-15T14:40:19;99333.19;;;20.26
19061;BMP280;9663;48.996;8.334;2022-11-15T14:42:47;99331.53;;;20.25
19061;BMP280;9663;48.996;8.334;2022-11-15T14:45:19;99326.47;;;20.23
19061;BMP280;9663;48.996;8.334;2022-11-15T14:47:45;99324.97;;;20.19
19061;BMP280;9663;48.996;8.334;2022-11-15T14:50:20;99314.88;;;20.16
19061;BMP280;9663;48.996;8.334;2022-11-15T14:52:47;99314.31;;;20.12
19061;BMP280;9663;48.996;8.334;2022-11-15T14:57:52;99305.63;;;19.99
19061;BMP280;9663;48.996;8.334;2022-11-15T15:00:18;99310.94;;;19.96
19061;BMP280;9663;48.996;8.334;2022-11-15T15:02:46;99303.47;;;19.91
19061;BMP280;9663;48.996;8.334;2022-11-15T15:07:42;99287.59;;;19.83
19061;BMP280;9663;48.996;8.334;2022-11-15T15:10:09;99290.44;;;19.79
19061;BMP280;9663;48.996;8.334;2022-11-15T15:12:34;99293.09;;;19.77
19061;BMP280;9663;48.996;8.334;2022-11-15T15:15:00;99283.13;;;19.71
19061;BMP280;9663;48.996;8.334;2022-11-15T15:17:26;99289.38;;;19.68
19061;BMP280;9663;48.996;8.334;2022-11-15T15:19:51;99276.75;;;19.63
19061;BMP280;9663;48.996;8.334;2022-11-15T15:22:19;99274.53;;;19.57
19061;BMP280;9663;48.996;8.334;2022-11-15T15:24:48;99273.94;;;19.52
19061;BMP280;9663;48.996;8.334;2022-11-15T15:27:14;99275.03;;;19.48
19061;BMP280;9663;48.996;8.334;2022-11-15T15:29:40;99271.91;;;19.43
19061;BMP280;9663;48.996;8.334;2022-11-15T15:32:08;99265.53;;;19.35
19061;BMP280;9663;48.996;8.334;2022-11-15T15:34:34;99264.19;;;19.28
19061;BMP280;9663;48.996;8.334;2022-11-15T15:39:48;99258.22;;;19.12
19061;BMP280;9663;48.996;8.334;2022-11-15T15:42:14;99248.75;;;19.43
19061;BMP280;9663;48.996;8.334;2022-11-15T15:44:40;99251.16;;;19.31
19061;BMP280;9663;48.996;8.334;2022-11-15T15:47:21;99248.75;;;19.13
19061;BMP280;9663;48.996;8.334;2022-11-15T15:49:48;99238.75;;;19.08
19061;BMP280;9663;48.996;8.334;2022-11-15T15:52:14;99235.47;;;19.05
19061;BMP280;9663;48.996;8.334;2022-11-15T15:54:40;99230.53;;;19.02
19061;BMP280;9663;48.996;8.334;2022-11-15T15:57:08;99232.34;;;19.00
19061;BMP280;9663;48.996;8.334;2022-11-15T15:59:36;99227.34;;;18.97
19061;BMP280;9663;48.996;8.334;2022-11-15T16:02:03;99230.09;;;18.94
19061;BMP280;9663;48.996;8.334;2022-11-15T16:04:29;99231.06;;;18.91
19061;BMP280;9663;48.996;8.334;2022-11-15T16:06:59;99227.97;;;18.85
19061;BMP280;9663;48.996;8.334;2022-11-15T16:09:25;99230.81;;;18.81
19061;BMP280;9663;48.996;8.334;2022-11-15T16:12:10;99224.44;;;18.72
19061;BMP280;9663;48.996;8.334;2022-11-15T16:14:36;99213.56;;;18.67
19061;BMP280;9663;48.996;8.334;2022-11-15T16:17:02;99217.13;;;18.65
19061;BMP280;9663;48.996;8.334;2022-11-15T16:19:28;99209.66;;;18.60
19061;BMP280;9663;48.996;8.334;2022-11-15T16:21:54;99204.00;;;18.54
19061;BMP280;9663;48.996;8.334;2022-11-15T16:24:20;99210.44;;;18.45
19061;BMP280;9663;48.996;8.334;2022-11-15T16:26:48;99205.78;;;18.37
19061;BMP280;9663;48.996;8.334;2022-11-15T16:29:14;99196.50;;;18.34
19061;BMP280;9663;48.996;8.334;2022-11-15T16:31:40;99196.69;;;18.31
19061;BMP280;9663;48.996;8.334;2022-11-15T16:34:05;99191.63;;;18.30
19061;BMP280;9663;48.996;8.334;2022-11-15T16:36:34;99195.91;;;18.29
19061;BMP280;9663;48.996;8.334;2022-11-15T16:39:00;99189.22;;;18.27
19061;BMP280;9663;48.996;8.334;2022-11-15T16:41:30;99188.53;;;18.23
19061;BMP280;9663;48.996;8.334;2022-11-15T16:43:55;99187.03;;;18.19
19061;BMP280;9663;48.996;8.334;2022-11-15T16:46:25;99189.72;;;18.16
19061;BMP280;9663;48.996;8.334;2022-11-15T16:48:51;99185.53;;;18.15